Time,TemperatureF,DewpointF,PressureIn,WindDirection,WindDirectionDegrees,WindSpeedMPH,WindSpeedGustMPH,Humidity,HourlyPrecipIn,Conditions,Clouds,dailyrainin,SoftwareType,DateUTC
2013-01-11 00:00:00,58.1,57.6,29.25,South,180,6.0,9.0,98,0.12,,,0.16,meteohub,2013-01-11 06:00:00,
2013-01-11 00:05:00,58.1,57.6,29.25,South,180,3.0,9.0,98,0.12,,,0.16,meteohub,2013-01-11 06:05:00,
2013-01-11 00:10:00,58.1,57.6,29.25,South,180,9.0,9.0,98,0.12,,,0.16,meteohub,2013-01-11 06:10:00,
2013-01-11 00:15:00,58.1,57.6,29.28,SSW,202,2.0,9.0,98,0.12,,,0.16,meteohub,2013-01-11 06:15:00,
2013-01-11 00:21:00,58.1,57.6,29.28,South,180,4.0,9.0,98,0.12,,,0.16,meteohub,2013-01-11 06:21:00,
2013-01-11 00:26:00,58.3,57.7,29.28,South,180,3.0,9.0,98,0.12,,,0.16,meteohub,2013-01-11 06:26:00,
2013-01-11 00:31:00,58.3,57.7,29.25,SSE,158,4.0,8.0,98,0.12,,,0.16,meteohub,2013-01-11 06:31:00,
2013-01-11 00:36:00,58.5,57.9,29.25,SSW,202,3.0,8.0,98,0.08,,,0.16,meteohub,2013-01-11 06:36:00,
2013-01-11 00:41:00,58.5,57.9,29.25,SSE,158,3.0,8.0,98,0.08,,,0.16,meteohub,2013-01-11 06:41:00,
2013-01-11 00:46:00,58.5,57.9,29.22,South,180,3.0,8.0,98,0.04,,,0.16,meteohub,2013-01-11 06:46:00,
2013-01-11 00:51:00,58.6,58.1,29.22,SSW,202,4.0,8.0,98,0.04,,,0.16,meteohub,2013-01-11 06:51:00,
2013-01-11 00:56:00,58.6,58.1,29.22,SSW,202,4.0,9.0,98,0.04,,,0.16,meteohub,2013-01-11 06:56:00,
2013-01-11 01:01:00,58.6,58.1,29.25,South,180,3.0,9.0,98,0.00,,,0.16,meteohub,2013-01-11 07:01:00,
2013-01-11 01:06:00,58.6,58.1,29.25,South,180,3.0,9.0,98,0.00,,,0.16,meteohub,2013-01-11 07:06:00,
2013-01-11 01:11:00,58.5,57.9,29.25,South,180,3.0,9.0,98,0.00,,,0.16,meteohub,2013-01-11 07:11:00,
2013-01-11 01:16:00,58.5,57.9,29.25,SSW,202,3.0,9.0,98,0.00,,,0.16,meteohub,2013-01-11 07:16:00,
2013-01-11 01:22:00,58.5,57.9,29.25,South,180,3.0,6.0,98,0.00,,,0.16,meteohub,2013-01-11 07:22:00,
2013-01-11 01:27:00,58.3,57.7,29.25,SSW,202,4.0,6.0,98,0.00,,,0.16,meteohub,2013-01-11 07:27:00,
2013-01-11 01:32:00,58.5,57.9,29.25,SSE,158,3.0,9.0,98,0.04,,,0.20,meteohub,2013-01-11 07:32:00,
2013-01-11 01:37:00,58.3,57.7,29.25,SSW,202,5.0,9.0,98,0.04,,,0.20,meteohub,2013-01-11 07:37:00,
2013-01-11 01:42:00,58.3,57.7,29.25,SSW,202,2.0,9.0,98,0.04,,,0.20,meteohub,2013-01-11 07:42:00,
2013-01-11 01:47:00,58.3,57.7,29.28,SSE,158,6.0,9.0,98,0.04,,,0.20,meteohub,2013-01-11 07:47:00,
2013-01-11 01:52:00,58.3,57.7,29.28,SW,225,3.0,9.0,98,0.04,,,0.20,meteohub,2013-01-11 07:52:00,
2013-01-11 01:57:00,58.3,57.7,29.28,SSW,202,3.0,9.0,98,0.04,,,0.20,meteohub,2013-01-11 07:57:00,
2013-01-11 02:02:00,58.1,57.6,29.28,SSW,202,4.0,9.0,98,0.04,,,0.20,meteohub,2013-01-11 08:02:00,
2013-01-11 02:07:00,57.9,57.4,29.28,SW,225,6.0,6.0,98,0.04,,,0.20,meteohub,2013-01-11 08:07:00,
2013-01-11 02:12:00,57.9,57.4,29.28,SSW,202,5.0,9.0,98,0.04,,,0.20,meteohub,2013-01-11 08:12:00,
2013-01-11 02:17:00,57.7,57.2,29.28,SSW,202,3.0,9.0,98,0.04,,,0.20,meteohub,2013-01-11 08:17:00,
2013-01-11 02:23:00,57.7,57.2,29.28,SSW,202,4.0,9.0,98,0.04,,,0.20,meteohub,2013-01-11 08:23:00,
2013-01-11 02:28:00,57.6,57.0,29.28,SSW,202,8.0,8.0,98,0.04,,,0.20,meteohub,2013-01-11 08:28:00,
2013-01-11 02:33:00,57.6,57.0,29.28,WSW,248,6.0,8.0,98,0.00,,,0.20,meteohub,2013-01-11 08:33:00,
2013-01-11 02:38:00,57.6,57.0,29.28,SSW,202,4.0,9.0,98,0.00,,,0.20,meteohub,2013-01-11 08:38:00,
2013-01-11 02:43:00,57.6,57.0,29.28,South,180,5.0,15.0,98,0.00,,,0.20,meteohub,2013-01-11 08:43:00,
2013-01-11 02:48:00,57.4,56.8,29.28,SSW,202,6.0,15.0,98,0.00,,,0.20,meteohub,2013-01-11 08:48:00,
2013-01-11 02:53:00,57.4,56.8,29.28,SW,225,6.0,15.0,98,0.00,,,0.20,meteohub,2013-01-11 08:53:00,
2013-01-11 02:58:00,57.2,56.7,29.28,South,180,6.0,9.0,98,0.00,,,0.20,meteohub,2013-01-11 08:58:00,
2013-01-11 03:03:00,57.2,56.7,29.28,South,180,8.0,11.0,98,0.00,,,0.20,meteohub,2013-01-11 09:03:00,
2013-01-11 03:08:00,57.2,56.7,29.28,SSW,202,6.0,11.0,98,0.00,,,0.20,meteohub,2013-01-11 09:08:00,
2013-01-11 03:13:00,57.0,56.5,29.28,SSW,202,10.0,11.0,98,0.00,,,0.20,meteohub,2013-01-11 09:13:00,
2013-01-11 03:18:00,57.0,56.5,29.28,South,180,4.0,11.0,98,0.00,,,0.20,meteohub,2013-01-11 09:18:00,
2013-01-11 03:23:00,57.0,56.5,29.28,SSW,202,10.0,10.0,98,0.00,,,0.20,meteohub,2013-01-11 09:23:00,
2013-01-11 03:28:00,57.0,56.5,29.28,South,180,6.0,10.0,98,0.00,,,0.20,meteohub,2013-01-11 09:28:00,
2013-01-11 03:34:00,56.8,56.3,29.28,SW,225,4.0,10.0,98,0.00,,,0.20,meteohub,2013-01-11 09:34:00,
2013-01-11 03:39:00,56.8,56.3,29.28,SW,225,6.0,10.0,98,0.00,,,0.20,meteohub,2013-01-11 09:39:00,
2013-01-11 03:44:00,56.8,56.3,29.31,WSW,248,6.0,10.0,98,0.00,,,0.20,meteohub,2013-01-11 09:44:00,
2013-01-11 03:49:00,56.8,56.3,29.31,SSW,202,5.0,10.0,98,0.00,,,0.20,meteohub,2013-01-11 09:49:00,
2013-01-11 03:54:00,56.8,56.3,29.31,SW,225,6.0,9.0,98,0.00,,,0.20,meteohub,2013-01-11 09:54:00,
2013-01-11 03:59:00,56.7,56.1,29.28,SSW,202,6.0,8.0,98,0.00,,,0.20,meteohub,2013-01-11 09:59:00,
2013-01-11 04:04:00,56.7,56.1,29.28,South,180,4.0,13.0,98,0.00,,,0.20,meteohub,2013-01-11 10:04:00,
2013-01-11 04:09:00,56.3,55.8,29.28,SSW,202,6.0,13.0,98,0.00,,,0.20,meteohub,2013-01-11 10:09:00,
2013-01-11 04:14:00,56.1,55.6,29.28,SSW,202,8.0,13.0,98,0.00,,,0.20,meteohub,2013-01-11 10:14:00,
2013-01-11 04:19:00,55.9,55.4,29.28,South,180,4.0,8.0,98,0.00,,,0.20,meteohub,2013-01-11 10:19:00,
2013-01-11 04:24:00,55.8,55.2,29.28,SW,225,6.0,9.0,98,0.00,,,0.20,meteohub,2013-01-11 10:24:00,
2013-01-11 04:30:00,55.4,54.9,29.28,SW,225,4.0,9.0,98,0.00,,,0.20,meteohub,2013-01-11 10:30:00,
2013-01-11 04:35:00,55.2,54.7,29.28,SSE,158,5.0,8.0,98,0.00,,,0.20,meteohub,2013-01-11 10:35:00,
2013-01-11 04:40:00,55.0,54.5,29.28,SSW,202,4.0,8.0,98,0.00,,,0.20,meteohub,2013-01-11 10:40:00,
2013-01-11 04:45:00,54.7,54.1,29.28,SSW,202,5.0,6.0,98,0.00,,,0.20,meteohub,2013-01-11 10:45:00,
2013-01-11 04:50:00,54.5,54.0,29.28,WSW,248,4.0,9.0,98,0.00,,,0.20,meteohub,2013-01-11 10:50:00,
2013-01-11 04:55:00,54.3,53.8,29.28,SW,225,9.0,9.0,98,0.00,,,0.20,meteohub,2013-01-11 10:55:00,
2013-01-11 05:00:00,54.1,53.6,29.28,WSW,248,6.0,11.0,98,0.00,,,0.20,meteohub,2013-01-11 11:00:00,
2013-01-11 05:05:00,54.0,53.4,29.28,WSW,248,4.0,11.0,98,0.00,,,0.20,meteohub,2013-01-11 11:05:00,
2013-01-11 05:10:00,54.0,53.4,29.28,SW,225,3.0,11.0,98,0.00,,,0.20,meteohub,2013-01-11 11:10:00,
2013-01-11 05:15:00,53.6,53.1,29.25,SSW,202,4.0,10.0,98,0.00,,,0.20,meteohub,2013-01-11 11:15:00,
2013-01-11 05:20:00,53.4,52.9,29.25,SSW,202,4.0,6.0,98,0.00,,,0.20,meteohub,2013-01-11 11:20:00,
2013-01-11 05:26:00,53.4,52.9,29.25,SW,225,3.0,6.0,98,0.00,,,0.20,meteohub,2013-01-11 11:26:00,
2013-01-11 05:31:00,53.2,52.7,29.28,South,180,4.0,8.0,98,0.00,,,0.20,meteohub,2013-01-11 11:31:00,
2013-01-11 05:36:00,53.1,52.2,29.28,SSW,202,4.0,8.0,97,0.00,,,0.20,meteohub,2013-01-11 11:36:00,
2013-01-11 05:41:00,53.1,52.2,29.28,SSW,202,3.0,8.0,97,0.00,,,0.20,meteohub,2013-01-11 11:41:00,
2013-01-11 05:46:00,52.9,52.0,29.28,SSW,202,4.0,8.0,97,0.00,,,0.20,meteohub,2013-01-11 11:46:00,
2013-01-11 05:51:00,52.9,51.4,29.28,SSW,202,3.0,8.0,95,0.00,,,0.20,meteohub,2013-01-11 11:51:00,
2013-01-11 05:56:00,53.1,51.6,29.28,SW,225,4.0,8.0,95,0.00,,,0.20,meteohub,2013-01-11 11:56:00,
2013-01-11 06:01:00,53.2,51.6,29.28,SSW,202,3.0,8.0,94,0.00,,,0.20,meteohub,2013-01-11 12:01:00,
2013-01-11 06:06:00,53.2,51.6,29.28,SW,225,8.0,8.0,94,0.00,,,0.20,meteohub,2013-01-11 12:06:00,
2013-01-11 06:11:00,53.2,50.9,29.28,SW,225,6.0,9.0,92,0.00,,,0.20,meteohub,2013-01-11 12:11:00,
2013-01-11 06:16:00,53.2,50.7,29.28,SW,225,6.0,11.0,91,0.00,,,0.20,meteohub,2013-01-11 12:16:00,
2013-01-11 06:22:00,53.1,50.5,29.28,SW,225,3.0,11.0,91,0.00,,,0.20,meteohub,2013-01-11 12:22:00,
2013-01-11 06:27:00,52.9,50.0,29.28,SSW,202,3.0,9.0,90,0.00,,,0.20,meteohub,2013-01-11 12:27:00,
2013-01-11 06:32:00,52.5,49.5,29.28,SSW,202,5.0,8.0,89,0.00,,,0.20,meteohub,2013-01-11 12:32:00,
2013-01-11 06:37:00,52.2,49.1,29.28,West,270,4.0,5.0,89,0.00,,,0.20,meteohub,2013-01-11 12:37:00,
2013-01-11 06:42:00,52.0,49.1,29.28,SW,225,7.0,7.0,90,0.00,,,0.20,meteohub,2013-01-11 12:42:00,
2013-01-11 06:47:00,51.8,48.9,29.31,South,180,5.0,9.0,90,0.00,,,0.20,meteohub,2013-01-11 12:47:00,
2013-01-11 06:52:00,52.0,49.1,29.31,SSW,202,5.0,9.0,90,0.00,,,0.20,meteohub,2013-01-11 12:52:00,
2013-01-11 06:57:00,52.3,49.5,29.31,SSW,202,6.0,11.0,90,0.00,,,0.20,meteohub,2013-01-11 12:57:00,
2013-01-11 07:02:00,52.3,49.5,29.34,SW,225,4.0,11.0,90,0.00,,,0.20,meteohub,2013-01-11 13:02:00,
2013-01-11 07:07:00,52.2,49.1,29.34,WSW,248,3.0,11.0,89,0.00,,,0.20,meteohub,2013-01-11 13:07:00,
2013-01-11 07:12:00,52.0,49.1,29.34,SSW,202,1.0,8.0,90,0.00,,,0.20,meteohub,2013-01-11 13:12:00,
2013-01-11 07:17:00,52.0,49.1,29.34,SW,225,6.0,8.0,90,0.00,,,0.20,meteohub,2013-01-11 13:17:00,
2013-01-11 07:22:00,52.2,49.1,29.34,SW,225,6.0,7.0,89,0.00,,,0.20,meteohub,2013-01-11 13:22:00,
2013-01-11 07:27:00,52.2,49.1,29.34,SW,225,5.0,7.0,89,0.00,,,0.20,meteohub,2013-01-11 13:27:00,
2013-01-11 07:32:00,52.2,49.1,29.34,WSW,248,6.0,15.0,89,0.00,,,0.20,meteohub,2013-01-11 13:32:00,
2013-01-11 07:37:00,52.5,49.1,29.34,South,180,6.0,15.0,88,0.00,,,0.20,meteohub,2013-01-11 13:37:00,
2013-01-11 07:42:00,52.5,49.1,29.34,SW,225,10.0,15.0,88,0.00,,,0.20,meteohub,2013-01-11 13:42:00,
2013-01-11 07:48:00,52.9,49.1,29.34,SW,225,5.0,7.0,87,0.00,,,0.20,meteohub,2013-01-11 13:48:00,
2013-01-11 07:53:00,53.1,48.9,29.34,SW,225,6.0,10.0,86,0.00,,,0.20,meteohub,2013-01-11 13:53:00,
2013-01-11 07:58:00,53.1,48.4,29.34,WSW,248,12.0,12.0,84,0.00,,,0.20,meteohub,2013-01-11 13:58:00,
2013-01-11 08:03:00,53.1,48.4,29.34,SSW,202,7.0,10.0,84,0.00,,,0.20,meteohub,2013-01-11 14:03:00,
2013-01-11 08:08:00,52.9,48.2,29.34,South,180,4.0,12.0,84,0.00,,,0.20,meteohub,2013-01-11 14:08:00,
2013-01-11 08:13:00,52.7,48.0,29.34,South,180,6.0,12.0,84,0.00,,,0.20,meteohub,2013-01-11 14:13:00,
2013-01-11 08:18:00,52.9,47.8,29.34,South,180,6.0,10.0,83,0.00,,,0.20,meteohub,2013-01-11 14:18:00,
2013-01-11 08:23:00,53.1,48.0,29.34,South,180,5.0,10.0,83,0.00,,,0.20,meteohub,2013-01-11 14:23:00,
2013-01-11 08:28:00,53.1,47.7,29.31,South,180,6.0,10.0,82,0.00,,,0.20,meteohub,2013-01-11 14:28:00,
2013-01-11 08:33:00,53.6,47.8,29.31,SSW,202,7.0,11.0,81,0.00,,,0.20,meteohub,2013-01-11 14:33:00,
2013-01-11 08:38:00,54.0,48.0,29.31,SW,225,4.0,11.0,80,0.00,,,0.20,meteohub,2013-01-11 14:38:00,
2013-01-11 08:44:00,54.3,48.4,29.34,South,180,8.0,11.0,80,0.00,,,0.20,meteohub,2013-01-11 14:44:00,
2013-01-11 08:49:00,54.5,48.2,29.34,South,180,11.0,11.0,79,0.00,,,0.20,meteohub,2013-01-11 14:49:00,
2013-01-11 08:54:00,54.5,48.2,29.34,SSW,202,6.0,11.0,79,0.00,,,0.20,meteohub,2013-01-11 14:54:00,
2013-01-11 08:59:00,54.7,48.0,29.34,SW,225,8.0,11.0,78,0.00,,,0.20,meteohub,2013-01-11 14:59:00,
2013-01-11 09:04:00,54.7,47.7,29.34,SSE,158,9.0,11.0,77,0.00,,,0.20,meteohub,2013-01-11 15:04:00,
2013-01-11 09:09:00,54.3,46.6,29.34,SW,225,6.0,10.0,75,0.00,,,0.20,meteohub,2013-01-11 15:09:00,
2013-01-11 09:14:00,54.5,46.8,29.34,SSW,202,9.0,12.0,75,0.00,,,0.20,meteohub,2013-01-11 15:14:00,
2013-01-11 09:19:00,54.9,46.8,29.34,WSW,248,12.0,15.0,74,0.00,,,0.20,meteohub,2013-01-11 15:19:00,
2013-01-11 09:24:00,55.0,46.6,29.34,SW,225,9.0,15.0,73,0.00,,,0.20,meteohub,2013-01-11 15:24:00,
2013-01-11 09:29:00,55.2,46.8,29.34,SSW,202,8.0,15.0,73,0.00,,,0.20,meteohub,2013-01-11 15:29:00,
2013-01-11 09:34:00,55.6,46.4,29.34,SW,225,6.0,13.0,71,0.00,,,0.20,meteohub,2013-01-11 15:34:00,
2013-01-11 09:39:00,55.8,46.9,29.34,SSW,202,12.0,13.0,72,0.00,,,0.20,meteohub,2013-01-11 15:39:00,
2013-01-11 09:44:00,55.8,46.6,29.34,SSW,202,8.0,13.0,71,0.00,,,0.20,meteohub,2013-01-11 15:44:00,
2013-01-11 09:50:00,55.4,45.9,29.34,WSW,248,5.0,13.0,70,0.00,,,0.20,meteohub,2013-01-11 15:50:00,
2013-01-11 09:55:00,55.8,46.6,29.34,SSW,202,5.0,13.0,71,0.00,,,0.20,meteohub,2013-01-11 15:55:00,
2013-01-11 10:00:00,56.3,46.6,29.34,WSW,248,9.0,13.0,70,0.00,,,0.20,meteohub,2013-01-11 16:00:00,
2013-01-11 10:05:00,56.5,46.8,29.34,SW,225,6.0,12.0,70,0.00,,,0.20,meteohub,2013-01-11 16:05:00,
2013-01-11 10:10:00,56.7,46.9,29.34,SSE,158,4.0,12.0,70,0.00,,,0.20,meteohub,2013-01-11 16:10:00,
2013-01-11 10:15:00,56.7,46.6,29.34,SW,225,6.0,12.0,69,0.00,,,0.20,meteohub,2013-01-11 16:15:00,
2013-01-11 10:20:00,56.3,45.9,29.34,SW,225,6.0,13.0,68,0.00,,,0.20,meteohub,2013-01-11 16:20:00,
2013-01-11 10:25:00,56.3,46.2,29.34,South,180,11.0,13.0,69,0.00,,,0.20,meteohub,2013-01-11 16:25:00,
2013-01-11 10:30:00,56.7,46.2,29.34,South,180,11.0,13.0,68,0.00,,,0.20,meteohub,2013-01-11 16:30:00,
2013-01-11 10:35:00,57.0,46.2,29.34,SSW,202,11.0,13.0,67,0.00,,,0.20,meteohub,2013-01-11 16:35:00,
2013-01-11 10:40:00,57.2,46.0,29.34,SSW,202,5.0,13.0,66,0.00,,,0.20,meteohub,2013-01-11 16:40:00,
2013-01-11 10:45:00,57.4,46.2,29.34,SW,225,6.0,14.0,66,0.00,,,0.20,meteohub,2013-01-11 16:45:00,
2013-01-11 10:50:00,57.2,46.0,29.34,SW,225,7.0,14.0,66,0.00,,,0.20,meteohub,2013-01-11 16:50:00,
2013-01-11 10:56:00,57.2,46.0,29.34,SW,225,5.0,14.0,66,0.00,,,0.20,meteohub,2013-01-11 16:56:00,
2013-01-11 11:01:00,57.6,45.9,29.34,SW,225,7.0,13.0,65,0.00,,,0.20,meteohub,2013-01-11 17:01:00,
2013-01-11 11:06:00,57.6,45.9,29.34,South,180,9.0,13.0,65,0.00,,,0.20,meteohub,2013-01-11 17:06:00,
2013-01-11 11:11:00,57.6,45.9,29.34,SSW,202,10.0,14.0,65,0.00,,,0.20,meteohub,2013-01-11 17:11:00,
2013-01-11 11:16:00,57.9,46.2,29.31,South,180,12.0,15.0,65,0.00,,,0.20,meteohub,2013-01-11 17:16:00,
2013-01-11 11:21:00,59.0,47.7,29.31,SW,225,8.0,15.0,66,0.00,,,0.20,meteohub,2013-01-11 17:21:00,
2013-01-11 11:26:00,59.4,46.8,29.31,SSE,158,6.0,13.0,63,0.00,,,0.20,meteohub,2013-01-11 17:26:00,
2013-01-11 11:31:00,59.7,46.8,29.31,South,180,8.0,15.0,62,0.00,,,0.20,meteohub,2013-01-11 17:31:00,
2013-01-11 11:36:00,60.3,46.8,29.31,South,180,10.0,15.0,61,0.00,,,0.20,meteohub,2013-01-11 17:36:00,
2013-01-11 11:41:00,59.9,46.0,29.31,South,180,8.0,16.0,60,0.00,,,0.20,meteohub,2013-01-11 17:41:00,
2013-01-11 11:46:00,60.3,46.4,29.34,South,180,5.0,16.0,60,0.00,,,0.20,meteohub,2013-01-11 17:46:00,
2013-01-11 11:51:00,60.8,46.8,29.34,SSE,158,11.0,16.0,60,0.00,,,0.20,meteohub,2013-01-11 17:51:00,
2013-01-11 11:57:00,60.8,46.8,29.34,SSW,202,10.0,14.0,60,0.00,,,0.20,meteohub,2013-01-11 17:57:00,
2013-01-11 12:02:00,60.6,46.8,29.34,North,0,6.0,15.0,60,0.00,,,0.20,meteohub,2013-01-11 18:02:00,
2013-01-11 12:07:00,60.3,46.4,29.34,SW,225,11.0,15.0,60,0.00,,,0.20,meteohub,2013-01-11 18:07:00,
2013-01-11 12:12:00,60.4,46.6,29.34,SW,225,9.0,15.0,60,0.00,,,0.20,meteohub,2013-01-11 18:12:00,
2013-01-11 12:17:00,61.2,47.1,29.31,South,180,4.0,13.0,60,0.00,,,0.20,meteohub,2013-01-11 18:17:00,
2013-01-11 12:22:00,61.3,46.9,29.31,SSW,202,9.0,17.0,59,0.00,,,0.20,meteohub,2013-01-11 18:22:00,
2013-01-11 12:27:00,60.4,46.0,29.31,SW,225,11.0,17.0,59,0.00,,,0.20,meteohub,2013-01-11 18:27:00,
2013-01-11 12:32:00,59.4,44.6,29.31,South,180,11.0,16.0,58,0.00,,,0.20,meteohub,2013-01-11 18:32:00,
2013-01-11 12:37:00,59.7,45.3,29.31,SSW,202,9.0,16.0,59,0.00,,,0.20,meteohub,2013-01-11 18:37:00,
2013-01-11 12:42:00,60.4,45.7,29.31,South,180,9.0,16.0,58,0.00,,,0.20,meteohub,2013-01-11 18:42:00,
2013-01-11 12:47:00,61.3,46.4,29.31,SSE,158,7.0,15.0,58,0.00,,,0.20,meteohub,2013-01-11 18:47:00,
2013-01-11 12:52:00,61.9,46.6,29.31,SSE,158,6.0,13.0,57,0.00,,,0.20,meteohub,2013-01-11 18:52:00,
2013-01-11 12:57:00,62.1,46.2,29.31,SSW,202,8.0,13.0,56,0.00,,,0.20,meteohub,2013-01-11 18:57:00,
2013-01-11 13:02:00,61.9,45.5,29.31,SSE,158,8.0,13.0,55,0.00,,,0.20,meteohub,2013-01-11 19:02:00,
2013-01-11 13:07:00,61.9,45.5,29.31,SSE,158,8.0,16.0,55,0.00,,,0.20,meteohub,2013-01-11 19:07:00,
2013-01-11 13:12:00,62.2,46.4,29.31,South,180,13.0,18.0,56,0.00,,,0.20,meteohub,2013-01-11 19:12:00,
2013-01-11 13:17:00,62.4,46.0,29.25,SSW,202,7.0,18.0,55,0.00,,,0.20,meteohub,2013-01-11 19:17:00,
2013-01-11 13:22:00,61.2,44.4,29.25,South,180,13.0,18.0,54,0.00,,,0.20,meteohub,2013-01-11 19:22:00,
2013-01-11 13:27:00,61.2,44.4,29.25,SSW,202,10.0,17.0,54,0.00,,,0.20,meteohub,2013-01-11 19:27:00,
2013-01-11 13:32:00,61.9,45.1,29.28,SW,225,8.0,17.0,54,0.00,,,0.20,meteohub,2013-01-11 19:32:00,
2013-01-11 13:37:00,62.2,45.9,29.28,SW,225,9.0,17.0,55,0.00,,,0.20,meteohub,2013-01-11 19:37:00,
2013-01-11 13:42:00,62.1,45.3,29.28,SSW,202,8.0,15.0,54,0.00,,,0.20,meteohub,2013-01-11 19:42:00,
2013-01-11 13:47:00,61.9,45.5,29.28,SSW,202,7.0,15.0,55,0.00,,,0.20,meteohub,2013-01-11 19:47:00,
2013-01-11 13:52:00,61.5,44.8,29.28,South,180,7.0,14.0,54,0.00,,,0.20,meteohub,2013-01-11 19:52:00,
2013-01-11 13:57:00,62.6,46.8,29.28,SSE,158,9.0,14.0,56,0.00,,,0.20,meteohub,2013-01-11 19:57:00,
2013-01-11 14:02:00,62.6,44.8,29.28,South,180,9.0,14.0,52,0.00,,,0.20,meteohub,2013-01-11 20:02:00,
2013-01-11 14:07:00,63.0,45.1,29.28,SSW,202,9.0,15.0,52,0.00,,,0.20,meteohub,2013-01-11 20:07:00,
2013-01-11 14:12:00,63.0,45.1,29.28,South,180,5.0,15.0,52,0.00,,,0.20,meteohub,2013-01-11 20:12:00,
2013-01-11 14:17:00,62.8,44.4,29.28,SSW,202,13.0,14.0,51,0.00,,,0.20,meteohub,2013-01-11 20:17:00,
2013-01-11 14:22:00,62.6,44.8,29.28,SSW,202,4.0,22.0,52,0.00,,,0.20,meteohub,2013-01-11 20:22:00,
2013-01-11 14:27:00,62.4,44.1,29.28,SSW,202,8.0,22.0,51,0.00,,,0.20,meteohub,2013-01-11 20:27:00,
2013-01-11 14:32:00,62.2,43.9,29.25,West,270,8.0,19.0,51,0.00,,,0.20,meteohub,2013-01-11 20:32:00,
2013-01-11 14:37:00,62.1,44.2,29.25,SSW,202,11.0,19.0,52,0.00,,,0.20,meteohub,2013-01-11 20:37:00,
2013-01-11 14:42:00,62.4,44.6,29.25,SW,225,11.0,19.0,52,0.00,,,0.20,meteohub,2013-01-11 20:42:00,
2013-01-11 14:47:00,62.8,45.0,29.28,South,180,10.0,17.0,52,0.00,,,0.20,meteohub,2013-01-11 20:47:00,
2013-01-11 14:52:00,62.2,45.0,29.28,SSW,202,6.0,16.0,53,0.00,,,0.20,meteohub,2013-01-11 20:52:00,
2013-01-11 14:57:00,62.2,45.3,29.28,SSW,202,6.0,13.0,54,0.00,,,0.20,meteohub,2013-01-11 20:57:00,
2013-01-11 15:02:00,61.9,45.1,29.28,SSW,202,6.0,12.0,54,0.00,,,0.20,meteohub,2013-01-11 21:02:00,
2013-01-11 15:07:00,61.3,44.6,29.28,South,180,9.0,12.0,54,0.00,,,0.20,meteohub,2013-01-11 21:07:00,
2013-01-11 15:12:00,60.8,45.0,29.28,SE,135,6.0,13.0,56,0.00,,,0.20,meteohub,2013-01-11 21:12:00,
2013-01-11 15:17:00,60.6,45.3,29.28,SSW,202,10.0,13.0,57,0.00,,,0.20,meteohub,2013-01-11 21:17:00,
2013-01-11 15:22:00,60.6,45.3,29.28,SSE,158,11.0,13.0,57,0.00,,,0.20,meteohub,2013-01-11 21:22:00,
2013-01-11 15:27:00,60.4,45.1,29.28,South,180,9.0,15.0,57,0.00,,,0.20,meteohub,2013-01-11 21:27:00,
2013-01-11 15:32:00,60.1,44.8,29.28,SSW,202,10.0,15.0,57,0.00,,,0.20,meteohub,2013-01-11 21:32:00,
2013-01-11 15:37:00,60.1,45.3,29.28,SSE,158,11.0,15.0,58,0.00,,,0.20,meteohub,2013-01-11 21:37:00,
2013-01-11 15:42:00,59.7,45.0,29.28,South,180,6.0,15.0,58,0.00,,,0.20,meteohub,2013-01-11 21:42:00,
2013-01-11 15:47:00,59.7,45.3,29.31,West,270,17.0,19.0,59,0.00,,,0.20,meteohub,2013-01-11 21:47:00,
2013-01-11 15:52:00,59.4,45.0,29.31,SW,225,8.0,21.0,59,0.00,,,0.20,meteohub,2013-01-11 21:52:00,
2013-01-11 15:57:00,59.2,45.3,29.28,South,180,6.0,21.0,60,0.00,,,0.20,meteohub,2013-01-11 21:57:00,
2013-01-11 16:02:00,58.5,45.1,29.28,South,180,6.0,22.0,61,0.00,,,0.20,meteohub,2013-01-11 22:02:00,
2013-01-11 16:07:00,58.3,45.3,29.28,South,180,4.0,22.0,62,0.00,,,0.20,meteohub,2013-01-11 22:07:00,
2013-01-11 16:12:00,57.9,45.0,29.31,SSE,158,5.0,22.0,62,0.00,,,0.20,meteohub,2013-01-11 22:12:00,
2013-01-11 16:17:00,57.6,45.1,29.31,SE,135,5.0,17.0,63,0.00,,,0.20,meteohub,2013-01-11 22:17:00,
2013-01-11 16:23:00,57.4,45.3,29.31,SSW,202,9.0,17.0,64,0.00,,,0.20,meteohub,2013-01-11 22:23:00,
2013-01-11 16:28:00,57.2,45.5,29.28,SSW,202,9.0,13.0,65,0.00,,,0.20,meteohub,2013-01-11 22:28:00,
2013-01-11 16:33:00,56.8,45.1,29.28,South,180,6.0,11.0,65,0.00,,,0.20,meteohub,2013-01-11 22:33:00,
2013-01-11 16:38:00,56.7,45.5,29.28,South,180,4.0,10.0,66,0.00,,,0.20,meteohub,2013-01-11 22:38:00,
2013-01-11 16:43:00,56.3,45.5,29.31,SSW,202,3.0,10.0,67,0.00,,,0.20,meteohub,2013-01-11 22:43:00,
2013-01-11 16:48:00,56.1,45.3,29.31,SE,135,5.0,10.0,67,0.00,,,0.20,meteohub,2013-01-11 22:48:00,
2013-01-11 16:53:00,55.9,45.5,29.31,South,180,5.0,9.0,68,0.00,,,0.20,meteohub,2013-01-11 22:53:00,
2013-01-11 16:58:00,55.6,45.1,29.28,SSE,158,3.0,9.0,68,0.00,,,0.20,meteohub,2013-01-11 22:58:00,
2013-01-11 17:03:00,55.4,45.0,29.28,South,180,3.0,9.0,68,0.00,,,0.20,meteohub,2013-01-11 23:03:00,
2013-01-11 17:08:00,55.2,45.3,29.28,SE,135,4.0,10.0,69,0.00,,,0.20,meteohub,2013-01-11 23:08:00,
2013-01-11 17:13:00,55.0,45.5,29.28,SSW,202,4.0,10.0,70,0.00,,,0.20,meteohub,2013-01-11 23:13:00,
2013-01-11 17:18:00,54.9,45.3,29.28,East,90,4.0,10.0,70,0.00,,,0.20,meteohub,2013-01-11 23:18:00,
2013-01-11 17:24:00,54.7,45.5,29.28,SE,135,3.0,8.0,71,0.00,,,0.20,meteohub,2013-01-11 23:24:00,
2013-01-11 17:29:00,54.5,45.3,29.31,ESE,112,4.0,9.0,71,0.00,,,0.20,meteohub,2013-01-11 23:29:00,
2013-01-11 17:34:00,54.5,45.7,29.31,SSW,202,3.0,9.0,72,0.00,,,0.20,meteohub,2013-01-11 23:34:00,
2013-01-11 17:39:00,54.3,45.9,29.31,SSW,202,5.0,7.0,73,0.00,,,0.20,meteohub,2013-01-11 23:39:00,
2013-01-11 17:44:00,54.1,45.7,29.31,SSW,202,3.0,6.0,73,0.00,,,0.20,meteohub,2013-01-11 23:44:00,
2013-01-11 17:49:00,54.1,45.7,29.31,SSE,158,3.0,8.0,73,0.00,,,0.20,meteohub,2013-01-11 23:49:00,
2013-01-11 17:54:00,54.0,45.5,29.31,South,180,8.0,8.0,73,0.00,,,0.20,meteohub,2013-01-11 23:54:00,
2013-01-11 17:59:00,54.0,45.9,29.31,South,180,8.0,8.0,74,0.00,,,0.20,meteohub,2013-01-11 23:59:00,
2013-01-11 18:04:00,53.8,45.7,29.31,South,180,3.0,8.0,74,0.00,,,0.20,meteohub,2013-01-12 00:04:00,
2013-01-11 18:10:00,53.6,45.5,29.31,SW,225,3.0,8.0,74,0.00,,,0.00,meteohub,2013-01-12 00:10:00,
2013-01-11 18:15:00,53.6,45.5,29.31,WSW,248,4.0,8.0,74,0.00,,,0.00,meteohub,2013-01-12 00:15:00,
2013-01-11 18:20:00,53.8,46.0,29.31,South,180,5.0,7.0,75,0.00,,,0.00,meteohub,2013-01-12 00:20:00,
2013-01-11 18:25:00,53.8,46.0,29.31,South,180,3.0,7.0,75,0.00,,,0.00,meteohub,2013-01-12 00:25:00,
2013-01-11 18:30:00,53.8,46.0,29.31,South,180,4.0,8.0,75,0.00,,,0.00,meteohub,2013-01-12 00:30:00,
2013-01-11 18:35:00,53.8,46.0,29.31,SSW,202,2.0,9.0,75,0.00,,,0.00,meteohub,2013-01-12 00:35:00,
2013-01-11 18:40:00,53.8,46.0,29.31,SSE,158,5.0,9.0,75,0.00,,,0.00,meteohub,2013-01-12 00:40:00,
2013-01-11 18:45:00,53.8,46.0,29.31,South,180,6.0,12.0,75,0.00,,,0.00,meteohub,2013-01-12 00:45:00,
2013-01-11 18:50:00,53.8,46.0,29.31,SSE,158,6.0,12.0,75,0.00,,,0.00,meteohub,2013-01-12 00:50:00,
2013-01-11 18:56:00,53.8,46.0,29.31,SSE,158,3.0,13.0,75,0.00,,,0.00,meteohub,2013-01-12 00:56:00,
2013-01-11 19:01:00,53.6,45.9,29.28,SSE,158,6.0,13.0,75,0.00,,,0.00,meteohub,2013-01-12 01:01:00,
2013-01-11 19:06:00,53.4,45.7,29.28,South,180,3.0,13.0,75,0.00,,,0.00,meteohub,2013-01-12 01:06:00,
2013-01-11 19:11:00,53.4,46.0,29.28,South,180,4.0,8.0,76,0.00,,,0.00,meteohub,2013-01-12 01:11:00,
2013-01-11 19:16:00,53.6,45.9,29.31,South,180,4.0,8.0,75,0.00,,,0.00,meteohub,2013-01-12 01:16:00,
2013-01-11 19:21:00,53.6,46.2,29.31,SSW,202,6.0,10.0,76,0.00,,,0.00,meteohub,2013-01-12 01:21:00,
2013-01-11 19:26:00,53.8,46.4,29.31,South,180,9.0,10.0,76,0.00,,,0.00,meteohub,2013-01-12 01:26:00,
2013-01-11 19:31:00,53.8,46.4,29.31,South,180,5.0,11.0,76,0.00,,,0.00,meteohub,2013-01-12 01:31:00,
2013-01-11 19:36:00,53.8,46.0,29.31,SSW,202,4.0,11.0,75,0.00,,,0.00,meteohub,2013-01-12 01:36:00,
2013-01-11 19:41:00,53.8,46.0,29.31,South,180,7.0,9.0,75,0.00,,,0.00,meteohub,2013-01-12 01:41:00,
2013-01-11 19:46:00,54.0,46.2,29.31,South,180,3.0,12.0,75,0.00,,,0.00,meteohub,2013-01-12 01:46:00,
2013-01-11 19:52:00,54.0,46.2,29.31,SW,225,5.0,12.0,75,0.00,,,0.00,meteohub,2013-01-12 01:52:00,
2013-01-11 19:57:00,54.0,46.2,29.31,SE,135,7.0,12.0,75,0.00,,,0.00,meteohub,2013-01-12 01:57:00,
2013-01-11 20:02:00,54.0,45.9,29.31,South,180,8.0,11.0,74,0.00,,,0.00,meteohub,2013-01-12 02:02:00,
2013-01-11 20:07:00,53.8,45.7,29.31,SSW,202,6.0,13.0,74,0.00,,,0.00,meteohub,2013-01-12 02:07:00,
2013-01-11 20:12:00,53.8,45.7,29.31,South,180,5.0,13.0,74,0.00,,,0.00,meteohub,2013-01-12 02:12:00,
2013-01-11 20:17:00,53.8,45.7,29.31,SSE,158,3.0,13.0,74,0.00,,,0.00,meteohub,2013-01-12 02:17:00,
2013-01-11 20:22:00,53.6,45.5,29.31,East,90,4.0,13.0,74,0.00,,,0.00,meteohub,2013-01-12 02:22:00,
2013-01-11 20:27:00,53.6,45.5,29.31,ESE,112,5.0,11.0,74,0.00,,,0.00,meteohub,2013-01-12 02:27:00,
2013-01-11 20:32:00,53.6,45.5,29.28,South,180,6.0,11.0,74,0.00,,,0.00,meteohub,2013-01-12 02:32:00,
2013-01-11 20:37:00,53.6,45.5,29.28,South,180,8.0,11.0,74,0.00,,,0.00,meteohub,2013-01-12 02:37:00,
2013-01-11 20:42:00,53.4,45.3,29.28,SSW,202,4.0,9.0,74,0.00,,,0.00,meteohub,2013-01-12 02:42:00,
2013-01-11 20:47:00,53.2,45.1,29.31,South,180,9.0,9.0,74,0.00,,,0.00,meteohub,2013-01-12 02:47:00,
2013-01-11 20:52:00,53.1,45.0,29.31,SSW,202,4.0,9.0,74,0.00,,,0.00,meteohub,2013-01-12 02:52:00,
2013-01-11 20:57:00,53.1,45.3,29.31,South,180,6.0,10.0,75,0.00,,,0.00,meteohub,2013-01-12 02:57:00,
2013-01-11 21:02:00,53.1,45.3,29.28,South,180,11.0,11.0,75,0.00,,,0.00,meteohub,2013-01-12 03:02:00,
2013-01-11 21:07:00,53.1,45.3,29.28,SSW,202,4.0,11.0,75,0.00,,,0.00,meteohub,2013-01-12 03:07:00,
2013-01-11 21:12:00,53.1,45.3,29.28,SSE,158,3.0,11.0,75,0.00,,,0.00,meteohub,2013-01-12 03:12:00,
2013-01-11 21:17:00,53.1,45.3,29.28,South,180,19.0,19.0,75,0.00,,,0.00,meteohub,2013-01-12 03:17:00,
2013-01-11 21:22:00,53.1,45.3,29.28,South,180,9.0,19.0,75,0.00,,,0.00,meteohub,2013-01-12 03:22:00,
2013-01-11 21:27:00,53.1,45.3,29.28,SSW,202,4.0,19.0,75,0.00,,,0.00,meteohub,2013-01-12 03:27:00,
2013-01-11 21:32:00,53.2,45.5,29.31,SW,225,7.0,13.0,75,0.00,,,0.00,meteohub,2013-01-12 03:32:00,
2013-01-11 21:37:00,53.4,45.7,29.31,South,180,7.0,13.0,75,0.00,,,0.00,meteohub,2013-01-12 03:37:00,
2013-01-11 21:42:00,53.2,45.5,29.31,South,180,7.0,15.0,75,0.00,,,0.00,meteohub,2013-01-12 03:42:00,
2013-01-11 21:47:00,53.2,45.5,29.31,SSW,202,4.0,15.0,75,0.00,,,0.00,meteohub,2013-01-12 03:47:00,
2013-01-11 21:52:00,53.2,45.5,29.31,ESE,112,4.0,12.0,75,0.00,,,0.00,meteohub,2013-01-12 03:52:00,
2013-01-11 21:57:00,53.4,45.7,29.31,SSE,158,9.0,11.0,75,0.00,,,0.00,meteohub,2013-01-12 03:57:00,
2013-01-11 22:02:00,53.8,45.7,29.28,South,180,11.0,12.0,74,0.00,,,0.00,meteohub,2013-01-12 04:02:00,
2013-01-11 22:07:00,54.0,45.9,29.28,SSE,158,9.0,15.0,74,0.00,,,0.00,meteohub,2013-01-12 04:07:00,
2013-01-11 22:12:00,54.1,45.7,29.28,South,180,10.0,19.0,73,0.00,,,0.00,meteohub,2013-01-12 04:12:00,
2013-01-11 22:17:00,54.3,45.9,29.28,SW,225,13.0,19.0,73,0.00,,,0.00,meteohub,2013-01-12 04:17:00,
2013-01-11 22:22:00,54.5,45.7,29.28,ENE,68,7.0,19.0,72,0.00,,,0.00,meteohub,2013-01-12 04:22:00,
2013-01-11 22:27:00,54.5,45.7,29.28,South,180,10.0,19.0,72,0.00,,,0.00,meteohub,2013-01-12 04:27:00,
2013-01-11 22:32:00,54.5,45.7,29.28,South,180,10.0,19.0,72,0.00,,,0.00,meteohub,2013-01-12 04:32:00,
2013-01-11 22:37:00,54.5,45.3,29.28,South,180,9.0,17.0,71,0.00,,,0.00,meteohub,2013-01-12 04:37:00,
2013-01-11 22:42:00,54.5,45.3,29.28,SSW,202,12.0,17.0,71,0.00,,,0.00,meteohub,2013-01-12 04:42:00,
2013-01-11 22:47:00,54.5,45.3,29.28,South,180,5.0,17.0,71,0.00,,,0.00,meteohub,2013-01-12 04:47:00,
2013-01-11 22:52:00,54.5,45.3,29.28,South,180,10.0,17.0,71,0.00,,,0.00,meteohub,2013-01-12 04:52:00,
2013-01-11 22:57:00,54.3,45.1,29.28,South,180,13.0,14.0,71,0.00,,,0.00,meteohub,2013-01-12 04:57:00,
2013-01-11 23:00:00,54.3,45.1,29.28,South,180,9.0,13.0,71,0.00,,,0.00,meteohub,2013-01-12 05:00:00,
2013-01-11 23:07:00,54.5,45.3,29.28,South,180,8.0,13.0,71,0.00,,,0.00,meteohub,2013-01-12 05:07:00,
2013-01-11 23:12:00,54.5,45.3,29.28,South,180,6.0,13.0,71,0.00,,,0.00,meteohub,2013-01-12 05:12:00,
2013-01-11 23:16:00,54.5,45.3,29.28,SSW,202,5.0,13.0,71,0.00,,,0.00,meteohub,2013-01-12 05:16:00,
2013-01-11 23:21:00,54.5,45.3,29.28,SW,225,9.0,13.0,71,0.00,,,0.00,meteohub,2013-01-12 05:21:00,
2013-01-11 23:27:00,54.3,45.1,29.28,WSW,248,6.0,12.0,71,0.00,,,0.00,meteohub,2013-01-12 05:27:00,
2013-01-11 23:32:00,54.3,45.1,29.28,South,180,6.0,12.0,71,0.00,,,0.00,meteohub,2013-01-12 05:32:00,
2013-01-11 23:37:00,54.3,45.1,29.28,SSW,202,6.0,10.0,71,0.00,,,0.00,meteohub,2013-01-12 05:37:00,
2013-01-11 23:42:00,54.1,45.0,29.28,SSW,202,7.0,11.0,71,0.00,,,0.00,meteohub,2013-01-12 05:42:00,
2013-01-11 23:47:00,54.0,44.8,29.28,SSW,202,8.0,11.0,71,0.00,,,0.00,meteohub,2013-01-12 05:47:00,
2013-01-11 23:52:00,54.0,44.8,29.28,South,180,6.0,14.0,71,0.00,,,0.00,meteohub,2013-01-12 05:52:00,
2013-01-11 23:57:00,53.8,44.6,29.28,SSW,202,10.0,14.0,71,0.00,,,0.00,meteohub,2013-01-12 05:57:00,